createdAt,value
2018-01-27T00:00:28.120Z,4.89
2018-01-27T00:02:56.456Z,5.03
2018-01-27T00:05:24.777Z,5.13
2018-01-27T00:07:53.119Z,5.13
2018-01-27T00:10:21.438Z,4.90
2018-01-27T00:12:49.763Z,4.94
2018-01-27T00:15:18.137Z,5.08
2018-01-27T00:17:46.445Z,5.12
2018-01-27T00:20:14.778Z,5.25
2018-01-27T00:22:52.876Z,5.15
2018-01-27T00:25:21.200Z,5.21
2018-01-27T00:27:49.639Z,4.92
2018-01-27T00:30:17.980Z,4.83
2018-01-27T00:32:46.318Z,4.71
2018-01-27T00:35:14.662Z,4.74
2018-01-27T00:37:43.022Z,4.57
2018-01-27T00:40:11.346Z,4.66
2018-01-27T00:42:39.688Z,4.45
2018-01-27T00:45:08.008Z,4.51
2018-01-27T00:47:36.455Z,4.67
2018-01-27T00:50:04.808Z,4.59
2018-01-27T00:52:33.126Z,4.60
2018-01-27T00:55:01.470Z,4.62
2018-01-27T00:57:29.799Z,4.74
2018-01-27T00:59:58.899Z,4.84
2018-01-27T01:02:27.999Z,4.77
2018-01-27T01:04:56.335Z,4.57
2018-01-27T01:07:24.675Z,4.05
2018-01-27T01:09:53.033Z,3.94
2018-01-27T01:12:22.122Z,3.87
2018-01-27T01:14:51.236Z,4.03
2018-01-27T01:17:19.633Z,4.13
2018-01-27T01:19:47.933Z,4.05
2018-01-27T01:22:16.292Z,4.09
2018-01-27T01:24:44.640Z,3.79
2018-01-27T01:27:13.763Z,3.84
2018-01-27T01:29:42.105Z,3.99
2018-01-27T01:32:10.446Z,4.06
2018-01-27T01:34:38.783Z,3.78
2018-01-27T01:37:07.131Z,3.90
2018-01-27T01:39:37.277Z,3.83
2018-01-27T01:42:05.612Z,3.99
2018-01-27T01:44:33.948Z,4.04
2018-01-27T01:47:02.270Z,3.97
2018-01-27T01:49:30.609Z,3.96
2018-01-27T01:51:58.951Z,3.98
2018-01-27T01:54:27.283Z,4.01
2018-01-27T01:56:55.611Z,3.93
2018-01-27T01:59:24.708Z,3.87
2018-01-27T02:01:53.037Z,3.81
2018-01-27T02:04:21.369Z,3.96
2018-01-27T02:06:49.705Z,3.99
2018-01-27T02:09:18.044Z,4.04
2018-01-27T02:11:46.392Z,4.03
2018-01-27T02:14:14.718Z,4.09
2018-01-27T02:16:44.086Z,4.11
2018-01-27T02:19:12.441Z,4.11
2018-01-27T02:21:40.767Z,4.18
2018-01-27T02:24:09.115Z,3.90
2018-01-27T02:26:37.439Z,3.79
2018-01-27T02:29:05.797Z,3.92
2018-01-27T02:31:34.143Z,3.71
2018-01-27T02:34:02.497Z,3.63
2018-01-27T02:36:31.615Z,3.62
2018-01-27T02:38:59.968Z,3.47
2018-01-27T02:41:28.372Z,3.17
2018-01-27T02:43:56.717Z,3.20
2018-01-27T02:46:25.050Z,3.12
2018-01-27T02:48:53.398Z,3.12
2018-01-27T02:51:22.558Z,3.13
2018-01-27T02:53:50.896Z,3.24
2018-01-27T02:56:19.226Z,3.28
2018-01-27T02:58:47.567Z,2.87
2018-01-27T03:01:15.890Z,2.88
2018-01-27T03:03:44.218Z,2.95
2018-01-27T03:06:12.538Z,2.99
2018-01-27T03:08:40.866Z,3.09
2018-01-27T03:11:09.204Z,3.09
2018-01-27T03:13:37.542Z,2.92
2018-01-27T03:16:05.879Z,3.00
2018-01-27T03:18:34.212Z,3.14
2018-01-27T03:21:02.550Z,3.29
2018-01-27T03:23:30.876Z,3.25
2018-01-27T03:25:59.214Z,3.36
2018-01-27T03:28:27.576Z,3.44
2018-01-27T03:30:55.917Z,3.55
2018-01-27T03:33:24.243Z,3.59
2018-01-27T03:35:52.589Z,3.41
2018-01-27T03:38:21.687Z,3.42
2018-01-27T03:40:50.012Z,3.39
2018-01-27T03:43:18.358Z,3.25
2018-01-27T03:45:46.694Z,3.10
2018-01-27T03:48:15.051Z,3.12
2018-01-27T03:50:43.407Z,3.04
2018-01-27T03:53:11.725Z,2.68
2018-01-27T03:55:40.067Z,2.81
2018-01-27T03:58:08.393Z,3.03
2018-01-27T04:00:36.740Z,3.11
2018-01-27T04:03:05.091Z,3.06
2018-01-27T04:05:33.428Z,3.05
2018-01-27T04:08:02.540Z,2.86
2018-01-27T04:10:30.866Z,2.92
2018-01-27T04:12:59.187Z,3.02
2018-01-27T04:15:28.293Z,3.01
2018-01-27T04:17:57.120Z,3.05
2018-01-27T04:20:25.446Z,2.97
2018-01-27T04:22:53.782Z,2.98
2018-01-27T04:25:22.122Z,2.93
2018-01-27T04:27:50.871Z,2.88
2018-01-27T04:30:19.216Z,2.64
2018-01-27T04:32:47.542Z,2.67
2018-01-27T04:35:16.642Z,2.47
2018-01-27T04:37:46.180Z,2.33
2018-01-27T04:40:14.517Z,2.20
2018-01-27T04:42:42.843Z,2.61
2018-01-27T04:45:11.185Z,2.84
2018-01-27T04:47:40.291Z,2.92
2018-01-27T04:50:08.633Z,2.96
2018-01-27T04:52:38.101Z,3.15
2018-01-27T04:55:07.205Z,3.27
2018-01-27T04:57:35.541Z,3.32
2018-01-27T05:00:03.859Z,3.47
2018-01-27T05:02:32.202Z,3.54
2018-01-27T05:05:00.542Z,3.37
2018-01-27T05:07:28.866Z,3.38
2018-01-27T05:09:57.190Z,3.22
2018-01-27T05:12:25.520Z,2.88
2018-01-27T05:14:53.871Z,3.08
2018-01-27T05:17:22.967Z,3.24
2018-01-27T05:19:51.304Z,2.88
2018-01-27T05:22:19.622Z,3.03
2018-01-27T05:24:48.719Z,3.00
2018-01-27T05:27:17.061Z,3.01
2018-01-27T05:29:45.409Z,2.96
2018-01-27T05:32:13.726Z,2.88
2018-01-27T05:34:42.052Z,3.04
2018-01-27T05:37:10.376Z,3.00
2018-01-27T05:39:38.727Z,3.02
2018-01-27T05:42:07.068Z,3.05
2018-01-27T05:44:36.238Z,3.06
2018-01-27T05:47:04.575Z,3.15
2018-01-27T05:49:32.894Z,3.21
2018-01-27T05:52:01.214Z,3.07
2018-01-27T05:54:29.558Z,3.05
2018-01-27T05:56:57.889Z,3.11
2018-01-27T05:59:26.228Z,3.00
2018-01-27T06:01:55.328Z,2.99
2018-01-27T06:04:23.673Z,2.90
2018-01-27T06:06:52.011Z,2.84
2018-01-27T06:09:20.339Z,2.67
2018-01-27T06:11:49.453Z,2.72
2018-01-27T06:14:18.569Z,2.43
2018-01-27T06:16:46.901Z,2.61
2018-01-27T06:19:15.238Z,2.60
2018-01-27T06:21:43.596Z,2.74
2018-01-27T06:24:11.922Z,2.75
2018-01-27T06:26:40.920Z,2.87
2018-01-27T06:29:09.269Z,2.84
2018-01-27T06:31:37.599Z,3.01
2018-01-27T06:34:05.984Z,2.97
2018-01-27T06:36:35.064Z,2.96
2018-01-27T06:39:03.391Z,2.90
2018-01-27T06:41:31.725Z,2.66
2018-01-27T06:44:00.835Z,2.75
2018-01-27T06:46:29.172Z,2.82
2018-01-27T06:48:57.503Z,2.81
2018-01-27T06:51:25.850Z,2.97
2018-01-27T06:53:54.973Z,2.97
2018-01-27T06:56:23.298Z,3.13
2018-01-27T06:58:51.641Z,3.14
2018-01-27T07:01:19.973Z,3.27
2018-01-27T07:03:48.316Z,3.35
2018-01-27T07:06:17.048Z,3.23
2018-01-27T07:08:46.638Z,3.29
2018-01-27T07:11:14.972Z,3.18
2018-01-27T07:13:43.352Z,3.15
2018-01-27T07:16:11.685Z,3.06
2018-01-27T07:18:42.317Z,2.73
2018-01-27T07:21:11.412Z,2.99
2018-01-27T07:23:39.767Z,3.13
2018-01-27T07:26:08.109Z,3.16
2018-01-27T07:28:36.483Z,3.24
2018-01-27T07:31:04.814Z,3.25
2018-01-27T07:33:33.146Z,3.47
2018-01-27T07:36:02.234Z,3.66
2018-01-27T07:38:30.559Z,3.63
2018-01-27T07:40:58.903Z,3.51
2018-01-27T07:43:27.220Z,3.50
2018-01-27T07:45:55.607Z,3.49
2018-01-27T07:48:23.913Z,3.65
2018-01-27T07:50:52.241Z,3.66
2018-01-27T07:53:20.574Z,3.58
2018-01-27T07:55:48.881Z,3.72
2018-01-27T07:58:17.607Z,3.82
2018-01-27T08:00:47.616Z,3.66
2018-01-27T08:03:15.949Z,3.69
2018-01-27T08:05:44.285Z,3.75
2018-01-27T08:08:13.404Z,3.71
2018-01-27T08:10:41.728Z,3.67
2018-01-27T08:13:10.830Z,3.70
2018-01-27T08:15:39.148Z,3.78
2018-01-27T08:18:07.479Z,3.49
2018-01-27T08:20:35.809Z,3.34
2018-01-27T08:23:04.143Z,3.38
2018-01-27T08:25:33.268Z,3.43
2018-01-27T08:28:01.612Z,3.38
2018-01-27T08:30:29.947Z,3.06
2018-01-27T08:32:58.290Z,3.21
2018-01-27T08:35:27.382Z,3.14
2018-01-27T08:37:55.735Z,3.26
2018-01-27T08:40:24.080Z,3.35
2018-01-27T08:42:52.424Z,3.46
2018-01-27T08:45:20.741Z,3.59
2018-01-27T08:47:49.092Z,3.36
2018-01-27T08:50:17.434Z,3.27
2018-01-27T08:52:46.608Z,3.48
2018-01-27T08:55:14.958Z,3.60
2018-01-27T08:57:43.291Z,3.70
2018-01-27T09:00:12.384Z,3.70
2018-01-27T09:02:40.712Z,3.81
2018-01-27T09:05:09.070Z,3.93
2018-01-27T09:07:37.468Z,3.85
2018-01-27T09:10:05.787Z,3.92
2018-01-27T09:12:34.125Z,3.87
2018-01-27T09:15:02.450Z,3.97
2018-01-27T09:17:30.786Z,3.97
2018-01-27T09:19:59.136Z,4.26
2018-01-27T09:22:27.474Z,3.98
2018-01-27T09:24:55.803Z,4.18
2018-01-27T09:27:24.139Z,4.26
2018-01-27T09:29:54.287Z,4.35
2018-01-27T09:32:22.606Z,4.48
2018-01-27T09:34:50.951Z,4.58
2018-01-27T09:37:19.353Z,4.55
2018-01-27T09:39:47.682Z,4.53
2018-01-27T09:42:16.740Z,4.58
2018-01-27T09:44:45.103Z,4.72
2018-01-27T09:47:13.429Z,4.73
2018-01-27T09:49:42.535Z,4.69
2018-01-27T09:52:10.852Z,4.67
2018-01-27T09:54:39.174Z,4.66
2018-01-27T09:57:07.519Z,4.90
2018-01-27T09:59:35.844Z,4.90
2018-01-27T10:02:07.884Z,4.91
2018-01-27T10:04:36.240Z,4.98
2018-01-27T10:07:04.567Z,5.02
2018-01-27T10:09:32.905Z,5.06
2018-01-27T10:12:01.227Z,5.23
2018-01-27T10:14:29.569Z,5.12
2018-01-27T10:16:57.893Z,5.23
2018-01-27T10:19:26.219Z,5.22
2018-01-27T10:21:54.549Z,5.31
2018-01-27T10:24:22.888Z,5.46
2018-01-27T10:26:51.229Z,5.62
2018-01-27T10:29:19.555Z,5.83
2018-01-27T10:31:47.927Z,6.06
2018-01-27T10:34:16.262Z,6.18
2018-01-27T10:36:45.422Z,6.07
2018-01-27T10:39:13.750Z,6.33
2018-01-27T10:41:42.075Z,5.99
2018-01-27T10:44:10.417Z,6.13
2018-01-27T10:46:39.057Z,6.29
2018-01-27T10:49:07.398Z,6.42
2018-01-27T10:51:36.505Z,6.62
2018-01-27T10:54:04.861Z,6.90
2018-01-27T10:56:33.198Z,7.17
2018-01-27T10:59:01.549Z,7.16
2018-01-27T11:01:29.889Z,7.00
2018-01-27T11:03:58.222Z,6.77
2018-01-27T11:06:26.645Z,6.76
2018-01-27T11:08:54.971Z,6.63
2018-01-27T11:11:23.318Z,6.86
2018-01-27T11:13:51.672Z,6.93
2018-01-27T11:16:20.005Z,6.93
2018-01-27T11:18:48.349Z,7.14
2018-01-27T11:21:17.240Z,7.45
2018-01-27T11:23:46.334Z,7.21
2018-01-27T11:26:16.690Z,7.04
2018-01-27T11:28:45.019Z,7.08
2018-01-27T11:31:13.402Z,7.19
2018-01-27T11:33:41.744Z,7.07
2018-01-27T11:36:10.071Z,6.50
2018-01-27T11:38:38.398Z,6.59
2018-01-27T11:41:06.738Z,6.50
2018-01-27T11:43:35.059Z,6.64
2018-01-27T11:46:03.392Z,6.64
2018-01-27T11:48:31.711Z,6.83
2018-01-27T11:51:00.031Z,6.97
2018-01-27T11:53:28.372Z,6.82
2018-01-27T11:55:56.706Z,6.65
2018-01-27T11:58:25.038Z,6.43
2018-01-27T12:00:53.362Z,6.14
2018-01-27T12:03:21.690Z,6.12
2018-01-27T12:05:50.010Z,6.05
2018-01-27T12:08:18.348Z,6.02
2018-01-27T12:10:46.820Z,6.05
2018-01-27T12:13:15.142Z,6.33
2018-01-27T12:15:43.513Z,6.46
2018-01-27T12:18:11.870Z,6.40
2018-01-27T12:20:40.239Z,6.48
2018-01-27T12:23:08.598Z,6.45
2018-01-27T12:25:36.939Z,6.43
2018-01-27T12:28:05.293Z,6.21
2018-01-27T12:30:34.396Z,6.40
2018-01-27T12:33:02.729Z,6.27
2018-01-27T12:35:31.109Z,6.37
2018-01-27T12:37:59.477Z,6.50
2018-01-27T12:40:27.831Z,6.54
2018-01-27T12:42:56.410Z,6.33
2018-01-27T12:45:31.701Z,6.23
2018-01-27T12:48:00.050Z,6.07
2018-01-27T12:50:28.388Z,6.10
2018-01-27T12:52:58.723Z,5.96
2018-01-27T12:55:27.056Z,5.88
2018-01-27T12:57:55.422Z,5.86
2018-01-27T13:00:24.519Z,6.02
2018-01-27T13:02:52.855Z,6.08
2018-01-27T13:05:21.813Z,6.07
2018-01-27T13:07:50.148Z,5.92
2018-01-27T13:10:18.482Z,5.74
2018-01-27T13:12:47.581Z,5.65
2018-01-27T13:15:15.915Z,5.78
2018-01-27T13:17:44.239Z,6.02
2018-01-27T13:20:13.375Z,6.12
2018-01-27T13:22:41.707Z,5.91
2018-01-27T13:25:10.057Z,5.93
2018-01-27T13:27:39.290Z,5.87
2018-01-27T13:30:08.397Z,5.93
2018-01-27T13:32:36.728Z,5.87
2018-01-27T13:35:05.094Z,5.81
2018-01-27T13:37:33.458Z,5.74
2018-01-27T13:40:01.798Z,5.54
2018-01-27T13:42:30.953Z,5.62
2018-01-27T13:44:59.304Z,5.63
2018-01-27T13:47:27.649Z,5.85
2018-01-27T13:49:56.019Z,5.77
2018-01-27T13:52:24.536Z,5.75
2018-01-27T13:54:52.880Z,5.60
2018-01-27T13:57:21.212Z,5.73
2018-01-27T13:59:49.548Z,5.88
2018-01-27T14:02:17.869Z,5.75
2018-01-27T14:04:46.185Z,5.82
2018-01-27T14:07:15.360Z,6.03
2018-01-27T14:09:43.685Z,6.13
2018-01-27T14:12:12.015Z,6.23
2018-01-27T14:14:40.355Z,5.87
2018-01-27T14:17:08.694Z,5.94
2018-01-27T14:19:37.817Z,5.85
2018-01-27T14:22:06.139Z,5.70
2018-01-27T14:24:35.353Z,5.95
2018-01-27T14:27:03.703Z,5.80
2018-01-27T14:29:32.033Z,5.65
2018-01-27T14:32:00.362Z,5.74
2018-01-27T14:34:29.316Z,5.34
2018-01-27T14:36:57.719Z,5.30
2018-01-27T14:39:26.104Z,5.09
2018-01-27T14:41:54.438Z,4.90
2018-01-27T14:44:22.770Z,4.76
2018-01-27T14:46:51.148Z,4.67
2018-01-27T14:49:19.514Z,4.66
2018-01-27T14:51:47.894Z,4.76
2018-01-27T14:54:16.347Z,4.86
2018-01-27T14:56:44.767Z,4.80
2018-01-27T14:59:13.132Z,4.96
2018-01-27T15:01:41.507Z,4.99
2018-01-27T15:04:09.901Z,4.79
2018-01-27T15:06:38.281Z,4.87
2018-01-27T15:09:06.691Z,4.82
2018-01-27T15:11:35.085Z,4.94
2018-01-27T15:14:03.440Z,5.03
2018-01-27T15:16:31.892Z,4.99
2018-01-27T15:19:00.327Z,5.11
2018-01-27T15:21:28.705Z,5.15
2018-01-27T15:23:57.163Z,5.08
2018-01-27T15:26:25.818Z,5.09
2018-01-27T15:28:55.403Z,4.99
2018-01-27T15:31:24.318Z,5.02
2018-01-27T15:33:54.635Z,4.96
2018-01-27T15:36:24.594Z,4.87
2018-01-27T15:38:53.911Z,4.76
2018-01-27T15:41:23.687Z,4.83
2018-01-27T15:43:54.348Z,4.86
2018-01-27T15:46:23.562Z,4.82
2018-01-27T15:48:53.169Z,4.91
2018-01-27T15:51:23.488Z,5.00
2018-01-27T15:53:53.509Z,5.08
2018-01-27T15:56:24.111Z,5.14
2018-01-27T15:58:53.703Z,5.17
2018-01-27T16:01:22.879Z,5.18
2018-01-27T16:03:52.645Z,5.19
2018-01-27T16:06:22.137Z,5.19
2018-01-27T16:08:51.632Z,5.11
2018-01-27T16:11:22.075Z,5.27
2018-01-27T16:13:51.502Z,5.26
2018-01-27T16:16:20.737Z,5.15
2018-01-27T16:18:49.670Z,5.23
2018-01-27T16:21:18.586Z,5.19
2018-01-27T16:23:49.137Z,5.04
2018-01-27T16:26:19.215Z,4.98
2018-01-27T16:28:47.904Z,4.89
2018-01-27T16:31:16.706Z,4.88
2018-01-27T16:33:45.202Z,4.85
2018-01-27T16:36:13.756Z,4.86
2018-01-27T16:38:44.118Z,4.72
2018-01-27T16:41:15.076Z,4.57
2018-01-27T16:43:44.187Z,4.56
2018-01-27T16:46:13.249Z,4.58
2018-01-27T16:48:43.181Z,4.50
2018-01-27T16:51:12.547Z,4.47
2018-01-27T16:53:42.305Z,4.33
2018-01-27T16:56:11.840Z,4.44
2018-01-27T16:58:40.738Z,4.52
2018-01-27T17:01:09.598Z,4.44
2018-01-27T17:03:38.990Z,4.43
2018-01-27T17:06:07.896Z,4.54
2018-01-27T17:08:37.061Z,4.60
2018-01-27T17:11:06.666Z,4.67
2018-01-27T17:13:35.547Z,4.76
2018-01-27T17:16:04.246Z,4.77
2018-01-27T17:18:33.232Z,4.76
2018-01-27T17:21:01.953Z,4.72
2018-01-27T17:23:31.026Z,4.76
2018-01-27T17:25:59.749Z,4.82
2018-01-27T17:28:29.100Z,4.85
2018-01-27T17:30:58.078Z,4.69
2018-01-27T17:33:26.760Z,4.75
2018-01-27T17:35:55.488Z,4.83
2018-01-27T17:38:24.825Z,4.76
2018-01-27T17:40:54.522Z,4.70
2018-01-27T17:43:23.873Z,4.64
2018-01-27T17:45:53.418Z,4.61
2018-01-27T17:48:22.577Z,4.76
2018-01-27T17:50:55.376Z,4.68
2018-01-27T17:53:26.808Z,4.66
2018-01-27T17:55:56.557Z,4.66
2018-01-27T17:58:26.289Z,4.65
2018-01-27T18:00:55.953Z,4.77
2018-01-27T18:03:25.567Z,4.66
2018-01-27T18:05:57.784Z,4.60
2018-01-27T18:08:28.312Z,4.56
2018-01-27T18:10:58.918Z,4.67
2018-01-27T18:13:28.664Z,4.59
2018-01-27T18:15:58.575Z,4.55
2018-01-27T18:18:29.308Z,4.58
2018-01-27T18:20:59.243Z,4.54
2018-01-27T18:23:29.068Z,4.64
2018-01-27T18:25:59.900Z,4.67
2018-01-27T18:28:29.783Z,4.60
2018-01-27T18:30:59.602Z,4.68
2018-01-27T18:33:29.511Z,4.59
2018-01-27T18:35:59.387Z,4.68
2018-01-27T18:38:31.202Z,4.62
2018-01-27T18:41:01.661Z,4.56
2018-01-27T18:43:31.539Z,4.53
2018-01-27T18:46:01.379Z,4.47
2018-01-27T18:48:31.263Z,4.53
2018-01-27T18:51:01.224Z,4.45
2018-01-27T18:53:31.035Z,4.47
2018-01-27T18:56:00.864Z,4.50
2018-01-27T18:58:30.694Z,4.44
2018-01-27T19:01:00.611Z,4.48
2018-01-27T19:03:30.659Z,4.29
2018-01-27T19:06:00.646Z,4.47
2018-01-27T19:08:31.392Z,4.53
2018-01-27T19:11:01.342Z,4.48
2018-01-27T19:13:31.254Z,4.37
2018-01-27T19:16:01.156Z,4.55
2018-01-27T19:18:31.623Z,4.42
2018-01-27T19:21:01.454Z,4.52
2018-01-27T19:23:31.287Z,4.52
2018-01-27T19:26:01.191Z,4.52
2018-01-27T19:28:31.823Z,4.43
2018-01-27T19:31:02.538Z,4.54
2018-01-27T19:33:33.252Z,4.46
2018-01-27T19:36:03.299Z,4.40
2018-01-27T19:38:34.016Z,4.44
2018-01-27T19:41:03.898Z,4.40
2018-01-27T19:43:33.899Z,4.42
2018-01-27T19:46:03.864Z,4.43
2018-01-27T19:48:35.039Z,4.35
2018-01-27T19:51:05.597Z,4.48
2018-01-27T19:53:36.472Z,4.47
2018-01-27T19:56:06.399Z,4.52
2018-01-27T19:58:36.324Z,4.57
2018-01-27T20:01:06.610Z,4.51
2018-01-27T20:03:36.542Z,4.40
2018-01-27T20:06:06.400Z,4.44
2018-01-27T20:08:36.338Z,4.30
2018-01-27T20:11:06.951Z,4.38
2018-01-27T20:13:36.917Z,4.43
2018-01-27T20:16:07.008Z,4.47
2018-01-27T20:18:36.926Z,4.53
2018-01-27T20:21:06.872Z,4.56
2018-01-27T20:23:36.717Z,4.60
2018-01-27T20:26:06.767Z,4.74
2018-01-27T20:28:37.411Z,4.69
2018-01-27T20:31:08.225Z,4.75
2018-01-27T20:33:39.515Z,4.78
2018-01-27T20:36:09.872Z,4.70
2018-01-27T20:38:39.912Z,4.75
2018-01-27T20:41:10.751Z,4.82
2018-01-27T20:43:40.699Z,4.81
2018-01-27T20:46:10.605Z,4.74
2018-01-27T20:48:40.625Z,4.79
2018-01-27T20:51:10.642Z,4.79
2018-01-27T20:53:41.734Z,4.83
2018-01-27T20:56:12.826Z,4.72
2018-01-27T20:58:42.831Z,4.89
2018-01-27T21:01:12.835Z,4.90
2018-01-27T21:03:42.721Z,4.83
2018-01-27T21:06:13.530Z,4.96
2018-01-27T21:08:44.162Z,4.90
2018-01-27T21:11:14.922Z,4.73
2018-01-27T21:13:45.193Z,4.93
2018-01-27T21:16:15.067Z,5.01
2018-01-27T21:18:44.920Z,4.99
2018-01-27T21:21:15.585Z,4.95
2018-01-27T21:23:45.384Z,4.96
2018-01-27T21:26:15.602Z,4.95
2018-01-27T21:28:45.416Z,4.83
2018-01-27T21:31:16.152Z,4.98
2018-01-27T21:33:45.940Z,5.03
2018-01-27T21:36:15.848Z,4.86
2018-01-27T21:38:45.792Z,5.07
2018-01-27T21:41:16.785Z,5.02
2018-01-27T21:43:46.682Z,5.09
2018-01-27T21:46:17.440Z,5.12
2018-01-27T21:48:47.324Z,5.13
2018-01-27T21:51:17.276Z,5.13
2018-01-27T21:53:47.148Z,5.16
2018-01-27T21:56:17.737Z,5.19
2018-01-27T21:58:47.527Z,5.24
2018-01-27T22:01:17.306Z,5.17
2018-01-27T22:03:47.178Z,5.16
2018-01-27T22:06:16.995Z,5.23
2018-01-27T22:08:46.750Z,5.32
2018-01-27T22:11:16.466Z,5.33
2018-01-27T22:13:47.106Z,5.30
2018-01-27T22:16:16.896Z,5.36
2018-01-27T22:18:47.223Z,5.38
2018-01-27T22:21:17.086Z,5.19
2018-01-27T22:23:46.799Z,5.25
2018-01-27T22:26:16.481Z,5.27
2018-01-27T22:28:47.094Z,5.27
2018-01-27T22:31:17.648Z,5.33
2018-01-27T22:33:47.339Z,5.42
2018-01-27T22:36:17.034Z,5.42
2018-01-27T22:38:47.010Z,5.46
2018-01-27T22:41:16.617Z,5.48
2018-01-27T22:43:46.028Z,5.54
2018-01-27T22:46:15.508Z,5.46
2018-01-27T22:48:45.797Z,5.47
2018-01-27T22:51:16.297Z,5.56
2018-01-27T22:53:45.564Z,5.49
2018-01-27T22:56:14.422Z,5.53
2018-01-27T22:58:42.823Z,5.58
2018-01-27T23:01:16.878Z,5.58
2018-01-27T23:03:45.338Z,5.48
2018-01-27T23:06:14.451Z,5.50
2018-01-27T23:08:42.806Z,5.51
2018-01-27T23:11:11.175Z,5.52
2018-01-27T23:13:39.512Z,5.51
2018-01-27T23:16:07.879Z,5.53
2018-01-27T23:18:36.230Z,5.47
2018-01-27T23:21:05.314Z,5.56
2018-01-27T23:23:33.678Z,5.46
2018-01-27T23:26:02.021Z,5.55
2018-01-27T23:28:30.346Z,5.63
2018-01-27T23:30:58.694Z,5.65
2018-01-27T23:33:27.043Z,5.45
2018-01-27T23:35:55.378Z,5.45
2018-01-27T23:38:23.702Z,5.48
2018-01-27T23:40:52.028Z,5.52
2018-01-27T23:43:20.368Z,5.49
2018-01-27T23:45:48.694Z,5.54
2018-01-27T23:48:17.785Z,5.64
2018-01-27T23:50:46.124Z,5.65
2018-01-27T23:53:14.447Z,5.54
2018-01-27T23:55:43.535Z,5.51
2018-01-27T23:58:12.924Z,5.41
